sensor_id;sensor_type;location;lat;lon;timestamp;temperature;humidity
16627;DHT22;8427;52.204;7.202;2023-06-10T00:00:00;18.70;61.60
16627;DHT22;8427;52.204;7.202;2023-06-10T00:02:33;18.80;61.50
16627;DHT22;8427;52.204;7.202;2023-06-10T00:05:01;18.70;61.50
16627;DHT22;8427;52.204;7.202;2023-06-10T00:07:30;18.60;62.10
16627;DHT22;8427;52.204;7.202;2023-06-10T00:09:58;18.60;63.00
16627;DHT22;8427;52.204;7.202;2023-06-10T00:12:26;18.60;62.80
16627;DHT22;8427;52.204;7.202;2023-06-10T00:14:55;18.50;63.30
16627;DHT22;8427;52.204;7.202;2023-06-10T00:17:23;18.40;63.60
16627;DHT22;8427;52.204;7.202;2023-06-10T00:19:53;18.40;63.70
16627;DHT22;8427;52.204;7.202;2023-06-10T00:22:21;18.30;64.20
16627;DHT22;8427;52.204;7.202;2023-06-10T00:24:51;18.30;64.30
16627;DHT22;8427;52.204;7.202;2023-06-10T00:27:19;18.20;64.90
16627;DHT22;8427;52.204;7.202;2023-06-10T00:29:47;18.20;65.30
16627;DHT22;8427;52.204;7.202;2023-06-10T00:32:15;18.10;65.30
16627;DHT22;8427;52.204;7.202;2023-06-10T00:34:43;18.20;66.30
16627;DHT22;8427;52.204;7.202;2023-06-10T00:37:12;18.10;67.30
16627;DHT22;8427;52.204;7.202;2023-06-10T00:39:40;18.00;67.40
16627;DHT22;8427;52.204;7.202;2023-06-10T00:42:08;18.00;66.80
16627;DHT22;8427;52.204;7.202;2023-06-10T00:44:37;17.80;66.30
16627;DHT22;8427;52.204;7.202;2023-06-10T00:47:06;17.80;66.70
16627;DHT22;8427;52.204;7.202;2023-06-10T00:49:35;17.70;66.20
16627;DHT22;8427;52.204;7.202;2023-06-10T00:52:04;17.70;67.00
16627;DHT22;8427;52.204;7.202;2023-06-10T00:54:34;17.70;68.40
16627;DHT22;8427;52.204;7.202;2023-06-10T00:57:02;17.60;67.50
16627;DHT22;8427;52.204;7.202;2023-06-10T00:59:30;17.60;69.40
16627;DHT22;8427;52.204;7.202;2023-06-10T01:01:59;17.40;67.30
16627;DHT22;8427;52.204;7.202;2023-06-10T01:04:27;17.50;67.10
16627;DHT22;8427;52.204;7.202;2023-06-10T01:07:04;17.50;68.40
16627;DHT22;8427;52.204;7.202;2023-06-10T01:09:41;17.40;68.70
16627;DHT22;8427;52.204;7.202;2023-06-10T01:12:15;17.40;69.00
16627;DHT22;8427;52.204;7.202;2023-06-10T01:14:45;17.30;68.80
16627;DHT22;8427;52.204;7.202;2023-06-10T01:17:13;17.30;69.90
16627;DHT22;8427;52.204;7.202;2023-06-10T01:19:43;17.20;70.80
16627;DHT22;8427;52.204;7.202;2023-06-10T01:22:13;17.10;71.40
16627;DHT22;8427;52.204;7.202;2023-06-10T01:24:42;17.10;70.90
16627;DHT22;8427;52.204;7.202;2023-06-10T01:27:13;17.00;70.60
16627;DHT22;8427;52.204;7.202;2023-06-10T01:29:46;17.00;70.20
16627;DHT22;8427;52.204;7.202;2023-06-10T01:32:18;17.00;71.90
16627;DHT22;8427;52.204;7.202;2023-06-10T01:34:48;16.90;71.30
16627;DHT22;8427;52.204;7.202;2023-06-10T01:37:19;16.80;72.00
16627;DHT22;8427;52.204;7.202;2023-06-10T01:39:49;16.80;71.80
16627;DHT22;8427;52.204;7.202;2023-06-10T01:42:17;16.70;71.90
16627;DHT22;8427;52.204;7.202;2023-06-10T01:44:45;16.70;72.60
16627;DHT22;8427;52.204;7.202;2023-06-10T01:47:13;16.60;72.90
16627;DHT22;8427;52.204;7.202;2023-06-10T01:49:41;16.60;72.00
16627;DHT22;8427;52.204;7.202;2023-06-10T01:52:09;16.60;72.30
16627;DHT22;8427;52.204;7.202;2023-06-10T01:54:39;16.60;71.60
16627;DHT22;8427;52.204;7.202;2023-06-10T01:57:07;16.60;71.60
16627;DHT22;8427;52.204;7.202;2023-06-10T01:59:35;16.60;70.90
16627;DHT22;8427;52.204;7.202;2023-06-10T02:02:03;16.60;71.80
16627;DHT22;8427;52.204;7.202;2023-06-10T02:04:31;16.60;71.50
16627;DHT22;8427;52.204;7.202;2023-06-10T02:06:59;16.50;71.30
16627;DHT22;8427;52.204;7.202;2023-06-10T02:09:31;16.40;71.60
16627;DHT22;8427;52.204;7.202;2023-06-10T02:12:04;16.40;71.60
16627;DHT22;8427;52.204;7.202;2023-06-10T02:14:33;16.40;71.60
16627;DHT22;8427;52.204;7.202;2023-06-10T02:17:01;16.50;72.20
16627;DHT22;8427;52.204;7.202;2023-06-10T02:19:29;16.40;72.20
16627;DHT22;8427;52.204;7.202;2023-06-10T02:21:57;16.40;72.40
16627;DHT22;8427;52.204;7.202;2023-06-10T02:24:25;16.40;71.90
16627;DHT22;8427;52.204;7.202;2023-06-10T02:26:53;16.40;72.30
16627;DHT22;8427;52.204;7.202;2023-06-10T02:29:23;16.40;72.30
16627;DHT22;8427;52.204;7.202;2023-06-10T02:31:51;16.40;72.50
16627;DHT22;8427;52.204;7.202;2023-06-10T02:34:20;16.30;72.60
16627;DHT22;8427;52.204;7.202;2023-06-10T02:36:48;16.40;72.80
16627;DHT22;8427;52.204;7.202;2023-06-10T02:39:17;16.40;72.90
16627;DHT22;8427;52.204;7.202;2023-06-10T02:41:45;16.20;73.10
16627;DHT22;8427;52.204;7.202;2023-06-10T02:44:13;16.20;73.40
16627;DHT22;8427;52.204;7.202;2023-06-10T02:46:43;16.20;73.60
16627;DHT22;8427;52.204;7.202;2023-06-10T02:49:11;16.20;73.50
16627;DHT22;8427;52.204;7.202;2023-06-10T02:51:39;16.20;73.50
16627;DHT22;8427;52.204;7.202;2023-06-10T02:54:07;16.20;73.80
16627;DHT22;8427;52.204;7.202;2023-06-10T02:56:35;16.10;74.00
16627;DHT22;8427;52.204;7.202;2023-06-10T02:59:03;16.00;73.80
16627;DHT22;8427;52.204;7.202;2023-06-10T03:01:33;16.10;74.00
16627;DHT22;8427;52.204;7.202;2023-06-10T03:04:05;16.10;73.70
16627;DHT22;8427;52.204;7.202;2023-06-10T03:06:33;16.10;74.10
16627;DHT22;8427;52.204;7.202;2023-06-10T03:09:02;16.00;74.10
16627;DHT22;8427;52.204;7.202;2023-06-10T03:11:30;15.90;74.30
16627;DHT22;8427;52.204;7.202;2023-06-10T03:14:00;15.90;74.20
16627;DHT22;8427;52.204;7.202;2023-06-10T03:16:28;16.00;74.20
16627;DHT22;8427;52.204;7.202;2023-06-10T03:18:57;15.90;74.40
16627;DHT22;8427;52.204;7.202;2023-06-10T03:21:26;15.90;74.20
16627;DHT22;8427;52.204;7.202;2023-06-10T03:23:54;15.90;74.10
16627;DHT22;8427;52.204;7.202;2023-06-10T03:26:22;16.00;74.30
16627;DHT22;8427;52.204;7.202;2023-06-10T03:28:50;16.00;74.40
16627;DHT22;8427;52.204;7.202;2023-06-10T03:31:18;15.90;74.50
16627;DHT22;8427;52.204;7.202;2023-06-10T03:33:46;15.90;74.50
16627;DHT22;8427;52.204;7.202;2023-06-10T03:36:14;15.90;74.30
16627;DHT22;8427;52.204;7.202;2023-06-10T03:38:44;15.90;74.30
16627;DHT22;8427;52.204;7.202;2023-06-10T03:41:12;15.90;74.30
16627;DHT22;8427;52.204;7.202;2023-06-10T03:43:40;15.90;74.20
16627;DHT22;8427;52.204;7.202;2023-06-10T03:46:08;15.90;74.40
16627;DHT22;8427;52.204;7.202;2023-06-10T03:48:37;15.90;74.40
16627;DHT22;8427;52.204;7.202;2023-06-10T03:51:05;15.90;74.20
16627;DHT22;8427;52.204;7.202;2023-06-10T03:53:33;15.90;74.20
16627;DHT22;8427;52.204;7.202;2023-06-10T03:56:03;16.00;74.20
16627;DHT22;8427;52.204;7.202;2023-06-10T03:58:31;16.00;74.10
16627;DHT22;8427;52.204;7.202;2023-06-10T04:00:59;15.90;73.80
16627;DHT22;8427;52.204;7.202;2023-06-10T04:03:27;15.90;73.90
16627;DHT22;8427;52.204;7.202;2023-06-10T04:05:55;15.90;74.10
16627;DHT22;8427;52.204;7.202;2023-06-10T04:08:23;16.00;74.00
16627;DHT22;8427;52.204;7.202;2023-06-10T04:10:52;15.90;74.10
16627;DHT22;8427;52.204;7.202;2023-06-10T04:13:21;15.90;74.20
16627;DHT22;8427;52.204;7.202;2023-06-10T04:15:49;16.00;73.60
16627;DHT22;8427;52.204;7.202;2023-06-10T04:18:17;16.00;73.60
16627;DHT22;8427;52.204;7.202;2023-06-10T04:20:45;16.10;73.10
16627;DHT22;8427;52.204;7.202;2023-06-10T04:23:13;16.10;73.60
16627;DHT22;8427;52.204;7.202;2023-06-10T04:25:42;16.20;73.30
16627;DHT22;8427;52.204;7.202;2023-06-10T04:28:10;16.20;73.00
16627;DHT22;8427;52.204;7.202;2023-06-10T04:30:39;16.30;72.50
16627;DHT22;8427;52.204;7.202;2023-06-10T04:33:08;16.50;72.10
16627;DHT22;8427;52.204;7.202;2023-06-10T04:35:36;16.60;71.70
16627;DHT22;8427;52.204;7.202;2023-06-10T04:38:04;16.60;71.60
16627;DHT22;8427;52.204;7.202;2023-06-10T04:40:32;16.70;71.70
16627;DHT22;8427;52.204;7.202;2023-06-10T04:43:00;16.80;70.30
16627;DHT22;8427;52.204;7.202;2023-06-10T04:45:29;16.90;69.70
16627;DHT22;8427;52.204;7.202;2023-06-10T04:47:59;17.00;70.10
16627;DHT22;8427;52.204;7.202;2023-06-10T04:50:27;17.10;69.10
16627;DHT22;8427;52.204;7.202;2023-06-10T04:52:55;17.30;69.00
16627;DHT22;8427;52.204;7.202;2023-06-10T04:55:24;17.40;68.50
16627;DHT22;8427;52.204;7.202;2023-06-10T04:57:52;17.50;67.60
16627;DHT22;8427;52.204;7.202;2023-06-10T05:00:20;17.50;67.40
16627;DHT22;8427;52.204;7.202;2023-06-10T05:02:49;17.60;67.00
16627;DHT22;8427;52.204;7.202;2023-06-10T05:05:19;17.60;66.90
16627;DHT22;8427;52.204;7.202;2023-06-10T05:07:47;17.80;66.90
16627;DHT22;8427;52.204;7.202;2023-06-10T05:10:15;18.00;67.00
16627;DHT22;8427;52.204;7.202;2023-06-10T05:12:43;18.10;66.10
16627;DHT22;8427;52.204;7.202;2023-06-10T05:15:11;18.00;66.00
16627;DHT22;8427;52.204;7.202;2023-06-10T05:17:39;18.20;65.90
16627;DHT22;8427;52.204;7.202;2023-06-10T05:20:08;18.30;66.40
16627;DHT22;8427;52.204;7.202;2023-06-10T05:22:38;18.40;64.80
16627;DHT22;8427;52.204;7.202;2023-06-10T05:25:07;18.50;64.80
16627;DHT22;8427;52.204;7.202;2023-06-10T05:27:35;18.40;64.10
16627;DHT22;8427;52.204;7.202;2023-06-10T05:30:05;18.50;63.80
16627;DHT22;8427;52.204;7.202;2023-06-10T05:32:34;18.60;63.60
16627;DHT22;8427;52.204;7.202;2023-06-10T05:35:02;18.70;64.00
16627;DHT22;8427;52.204;7.202;2023-06-10T05:37:33;18.90;63.90
16627;DHT22;8427;52.204;7.202;2023-06-10T05:40:05;19.00;61.90
16627;DHT22;8427;52.204;7.202;2023-06-10T05:42:33;19.00;61.80
16627;DHT22;8427;52.204;7.202;2023-06-10T05:45:01;19.00;61.40
16627;DHT22;8427;52.204;7.202;2023-06-10T05:47:30;19.00;61.10
16627;DHT22;8427;52.204;7.202;2023-06-10T05:49:58;19.10;61.10
16627;DHT22;8427;52.204;7.202;2023-06-10T05:52:26;19.30;60.20
16627;DHT22;8427;52.204;7.202;2023-06-10T05:54:54;19.30;60.60
16627;DHT22;8427;52.204;7.202;2023-06-10T05:57:24;19.50;60.00
16627;DHT22;8427;52.204;7.202;2023-06-10T05:59:52;19.70;60.00
16627;DHT22;8427;52.204;7.202;2023-06-10T06:02:20;19.80;59.70
16627;DHT22;8427;52.204;7.202;2023-06-10T06:04:48;20.10;60.60
16627;DHT22;8427;52.204;7.202;2023-06-10T06:07:16;20.10;59.10
16627;DHT22;8427;52.204;7.202;2023-06-10T06:09:47;20.10;58.10
16627;DHT22;8427;52.204;7.202;2023-06-10T06:12:15;20.10;58.60
16627;DHT22;8427;52.204;7.202;2023-06-10T06:14:44;20.10;59.30
16627;DHT22;8427;52.204;7.202;2023-06-10T06:17:12;20.00;58.90
16627;DHT22;8427;52.204;7.202;2023-06-10T06:19:40;20.00;59.00
16627;DHT22;8427;52.204;7.202;2023-06-10T06:22:08;19.90;60.40
16627;DHT22;8427;52.204;7.202;2023-06-10T06:24:36;20.00;59.50
16627;DHT22;8427;52.204;7.202;2023-06-10T06:27:05;20.00;58.20
16627;DHT22;8427;52.204;7.202;2023-06-10T06:29:33;20.00;58.30
16627;DHT22;8427;52.204;7.202;2023-06-10T06:32:03;20.00;58.20
16627;DHT22;8427;52.204;7.202;2023-06-10T06:34:31;20.10;57.90
16627;DHT22;8427;52.204;7.202;2023-06-10T06:37:00;20.20;60.20
16627;DHT22;8427;52.204;7.202;2023-06-10T06:39:28;20.20;58.20
16627;DHT22;8427;52.204;7.202;2023-06-10T06:41:56;20.30;56.70
16627;DHT22;8427;52.204;7.202;2023-06-10T06:44:24;20.30;56.90
16627;DHT22;8427;52.204;7.202;2023-06-10T06:46:52;20.40;56.50
16627;DHT22;8427;52.204;7.202;2023-06-10T06:49:21;20.60;55.40
16627;DHT22;8427;52.204;7.202;2023-06-10T06:51:49;20.70;55.60
16627;DHT22;8427;52.204;7.202;2023-06-10T06:54:17;20.80;55.80
16627;DHT22;8427;52.204;7.202;2023-06-10T06:56:45;20.90;56.60
16627;DHT22;8427;52.204;7.202;2023-06-10T06:59:13;21.10;55.10
16627;DHT22;8427;52.204;7.202;2023-06-10T07:01:41;21.20;55.00
16627;DHT22;8427;52.204;7.202;2023-06-10T07:04:09;21.30;53.60
16627;DHT22;8427;52.204;7.202;2023-06-10T07:06:38;21.30;53.10
16627;DHT22;8427;52.204;7.202;2023-06-10T07:09:07;21.30;54.70
16627;DHT22;8427;52.204;7.202;2023-06-10T07:11:36;21.40;54.10
16627;DHT22;8427;52.204;7.202;2023-06-10T07:14:04;21.40;53.70
16627;DHT22;8427;52.204;7.202;2023-06-10T07:16:32;21.60;53.70
16627;DHT22;8427;52.204;7.202;2023-06-10T07:19:00;21.70;55.10
16627;DHT22;8427;52.204;7.202;2023-06-10T07:21:31;21.90;53.80
16627;DHT22;8427;52.204;7.202;2023-06-10T07:24:02;22.10;51.90
16627;DHT22;8427;52.204;7.202;2023-06-10T07:26:30;22.20;50.80
16627;DHT22;8427;52.204;7.202;2023-06-10T07:28:58;22.20;53.10
16627;DHT22;8427;52.204;7.202;2023-06-10T07:31:26;22.40;51.90
16627;DHT22;8427;52.204;7.202;2023-06-10T07:33:54;22.50;50.90
16627;DHT22;8427;52.204;7.202;2023-06-10T07:36:22;22.40;48.70
16627;DHT22;8427;52.204;7.202;2023-06-10T07:38:50;22.50;50.60
16627;DHT22;8427;52.204;7.202;2023-06-10T07:41:19;22.60;49.40
16627;DHT22;8427;52.204;7.202;2023-06-10T07:43:47;22.60;48.40
16627;DHT22;8427;52.204;7.202;2023-06-10T07:46:21;22.80;49.50
16627;DHT22;8427;52.204;7.202;2023-06-10T07:48:49;22.90;52.30
16627;DHT22;8427;52.204;7.202;2023-06-10T07:51:18;23.10;51.90
16627;DHT22;8427;52.204;7.202;2023-06-10T07:53:46;23.20;51.70
16627;DHT22;8427;52.204;7.202;2023-06-10T07:56:14;23.20;48.50
16627;DHT22;8427;52.204;7.202;2023-06-10T07:58:43;23.30;50.50
16627;DHT22;8427;52.204;7.202;2023-06-10T08:01:11;23.50;51.10
16627;DHT22;8427;52.204;7.202;2023-06-10T08:03:39;23.50;51.30
16627;DHT22;8427;52.204;7.202;2023-06-10T08:06:07;23.60;48.90
16627;DHT22;8427;52.204;7.202;2023-06-10T08:08:37;23.50;48.30
16627;DHT22;8427;52.204;7.202;2023-06-10T08:11:08;23.70;49.80
16627;DHT22;8427;52.204;7.202;2023-06-10T08:13:36;23.70;48.80
16627;DHT22;8427;52.204;7.202;2023-06-10T08:16:06;23.80;50.70
16627;DHT22;8427;52.204;7.202;2023-06-10T08:18:34;23.80;46.60
16627;DHT22;8427;52.204;7.202;2023-06-10T08:21:02;23.80;46.40
16627;DHT22;8427;52.204;7.202;2023-06-10T08:23:30;23.80;47.20
16627;DHT22;8427;52.204;7.202;2023-06-10T08:25:58;23.80;46.80
16627;DHT22;8427;52.204;7.202;2023-06-10T08:28:26;23.90;47.70
16627;DHT22;8427;52.204;7.202;2023-06-10T08:30:54;23.90;46.30
16627;DHT22;8427;52.204;7.202;2023-06-10T08:33:25;24.00;45.70
16627;DHT22;8427;52.204;7.202;2023-06-10T08:35:53;24.10;46.20
16627;DHT22;8427;52.204;7.202;2023-06-10T08:38:21;24.10;48.00
16627;DHT22;8427;52.204;7.202;2023-06-10T08:40:50;24.30;47.80
16627;DHT22;8427;52.204;7.202;2023-06-10T08:43:28;24.50;46.50
16627;DHT22;8427;52.204;7.202;2023-06-10T08:46:00;24.60;49.40
16627;DHT22;8427;52.204;7.202;2023-06-10T08:48:31;24.70;48.40
16627;DHT22;8427;52.204;7.202;2023-06-10T08:51:04;24.80;47.00
16627;DHT22;8427;52.204;7.202;2023-06-10T08:53:37;24.90;49.10
16627;DHT22;8427;52.204;7.202;2023-06-10T08:56:06;24.80;48.50
16627;DHT22;8427;52.204;7.202;2023-06-10T08:58:34;25.10;47.60
16627;DHT22;8427;52.204;7.202;2023-06-10T09:01:08;24.90;45.80
16627;DHT22;8427;52.204;7.202;2023-06-10T09:03:38;25.00;48.20
16627;DHT22;8427;52.204;7.202;2023-06-10T09:06:06;25.10;44.90
16627;DHT22;8427;52.204;7.202;2023-06-10T09:08:35;25.00;44.60
16627;DHT22;8427;52.204;7.202;2023-06-10T09:11:03;24.90;43.30
16627;DHT22;8427;52.204;7.202;2023-06-10T09:13:31;25.10;46.50
16627;DHT22;8427;52.204;7.202;2023-06-10T09:15:59;25.10;44.00
16627;DHT22;8427;52.204;7.202;2023-06-10T09:18:29;25.10;45.80
16627;DHT22;8427;52.204;7.202;2023-06-10T09:20:59;25.10;45.30
16627;DHT22;8427;52.204;7.202;2023-06-10T09:23:27;25.30;43.40
16627;DHT22;8427;52.204;7.202;2023-06-10T09:25:58;25.40;43.70
16627;DHT22;8427;52.204;7.202;2023-06-10T09:28:26;25.40;44.00
16627;DHT22;8427;52.204;7.202;2023-06-10T09:31:04;25.40;43.50
16627;DHT22;8427;52.204;7.202;2023-06-10T09:33:36;25.60;43.90
16627;DHT22;8427;52.204;7.202;2023-06-10T09:36:07;25.70;44.90
16627;DHT22;8427;52.204;7.202;2023-06-10T09:38:35;25.90;44.30
16627;DHT22;8427;52.204;7.202;2023-06-10T09:41:04;26.00;44.70
16627;DHT22;8427;52.204;7.202;2023-06-10T09:43:39;26.10;42.10
16627;DHT22;8427;52.204;7.202;2023-06-10T09:46:14;26.10;43.20
16627;DHT22;8427;52.204;7.202;2023-06-10T09:48:44;26.10;41.90
16627;DHT22;8427;52.204;7.202;2023-06-10T09:51:14;25.90;43.60
16627;DHT22;8427;52.204;7.202;2023-06-10T09:53:48;26.10;45.00
16627;DHT22;8427;52.204;7.202;2023-06-10T09:56:19;26.10;40.50
16627;DHT22;8427;52.204;7.202;2023-06-10T09:58:47;26.20;43.90
16627;DHT22;8427;52.204;7.202;2023-06-10T10:01:15;26.20;41.60
16627;DHT22;8427;52.204;7.202;2023-06-10T10:03:44;26.40;44.20
16627;DHT22;8427;52.204;7.202;2023-06-10T10:06:17;26.50;43.20
16627;DHT22;8427;52.204;7.202;2023-06-10T10:08:46;26.60;41.50
16627;DHT22;8427;52.204;7.202;2023-06-10T10:11:17;26.70;42.50
16627;DHT22;8427;52.204;7.202;2023-06-10T10:13:48;26.70;40.90
16627;DHT22;8427;52.204;7.202;2023-06-10T10:16:19;26.90;39.60
16627;DHT22;8427;52.204;7.202;2023-06-10T10:18:53;27.00;43.70
16627;DHT22;8427;52.204;7.202;2023-06-10T10:21:26;27.00;38.60
16627;DHT22;8427;52.204;7.202;2023-06-10T10:24:01;26.90;39.30
16627;DHT22;8427;52.204;7.202;2023-06-10T10:26:31;27.10;40.10
16627;DHT22;8427;52.204;7.202;2023-06-10T10:29:07;27.20;40.00
16627;DHT22;8427;52.204;7.202;2023-06-10T10:31:39;27.30;39.20
16627;DHT22;8427;52.204;7.202;2023-06-10T10:34:15;27.40;42.20
16627;DHT22;8427;52.204;7.202;2023-06-10T10:36:45;27.40;39.80
16627;DHT22;8427;52.204;7.202;2023-06-10T10:39:15;27.30;38.10
16627;DHT22;8427;52.204;7.202;2023-06-10T10:41:44;27.40;37.40
16627;DHT22;8427;52.204;7.202;2023-06-10T10:44:13;27.30;39.40
16627;DHT22;8427;52.204;7.202;2023-06-10T10:46:48;27.40;38.70
16627;DHT22;8427;52.204;7.202;2023-06-10T10:49:17;27.50;37.50
16627;DHT22;8427;52.204;7.202;2023-06-10T10:51:56;27.70;40.00
16627;DHT22;8427;52.204;7.202;2023-06-10T10:54:32;27.80;38.00
16627;DHT22;8427;52.204;7.202;2023-06-10T10:57:10;27.80;38.00
16627;DHT22;8427;52.204;7.202;2023-06-10T10:59:53;27.80;36.40
16627;DHT22;8427;52.204;7.202;2023-06-10T11:02:34;27.80;36.00
16627;DHT22;8427;52.204;7.202;2023-06-10T11:05:06;27.70;38.10
16627;DHT22;8427;52.204;7.202;2023-06-10T11:07:36;27.80;37.30
16627;DHT22;8427;52.204;7.202;2023-06-10T11:10:07;27.70;35.50
16627;DHT22;8427;52.204;7.202;2023-06-10T11:12:51;27.80;35.50
16627;DHT22;8427;52.204;7.202;2023-06-10T11:15:22;28.00;37.00
16627;DHT22;8427;52.204;7.202;2023-06-10T11:18:14;28.00;36.30
16627;DHT22;8427;52.204;7.202;2023-06-10T11:20:53;28.20;36.90
16627;DHT22;8427;52.204;7.202;2023-06-10T11:23:32;28.20;34.50
16627;DHT22;8427;52.204;7.202;2023-06-10T11:26:14;28.20;35.70
16627;DHT22;8427;52.204;7.202;2023-06-10T11:29:01;28.30;35.80
16627;DHT22;8427;52.204;7.202;2023-06-10T11:31:30;28.40;38.50
16627;DHT22;8427;52.204;7.202;2023-06-10T11:34:00;28.50;37.50
16627;DHT22;8427;52.204;7.202;2023-06-10T11:36:30;28.60;35.70
16627;DHT22;8427;52.204;7.202;2023-06-10T11:39:01;28.50;34.80
16627;DHT22;8427;52.204;7.202;2023-06-10T11:41:30;28.60;34.70
16627;DHT22;8427;52.204;7.202;2023-06-10T11:44:02;28.60;33.40
16627;DHT22;8427;52.204;7.202;2023-06-10T11:46:30;28.60;34.50
16627;DHT22;8427;52.204;7.202;2023-06-10T11:48:59;28.60;33.20
16627;DHT22;8427;52.204;7.202;2023-06-10T11:51:32;28.40;31.70
16627;DHT22;8427;52.204;7.202;2023-06-10T11:54:02;28.50;34.50
16627;DHT22;8427;52.204;7.202;2023-06-10T11:56:31;28.70;33.30
16627;DHT22;8427;52.204;7.202;2023-06-10T11:59:00;28.80;33.80
16627;DHT22;8427;52.204;7.202;2023-06-10T12:01:32;28.80;32.40
16627;DHT22;8427;52.204;7.202;2023-06-10T12:04:03;28.80;31.90
16627;DHT22;8427;52.204;7.202;2023-06-10T12:06:38;28.90;31.70
16627;DHT22;8427;52.204;7.202;2023-06-10T12:09:13;28.90;30.20
16627;DHT22;8427;52.204;7.202;2023-06-10T12:11:54;29.00;31.00
16627;DHT22;8427;52.204;7.202;2023-06-10T12:14:50;29.00;33.00
16627;DHT22;8427;52.204;7.202;2023-06-10T12:17:20;29.00;30.60
16627;DHT22;8427;52.204;7.202;2023-06-10T12:19:50;29.10;32.70
16627;DHT22;8427;52.204;7.202;2023-06-10T12:22:18;29.20;32.80
16627;DHT22;8427;52.204;7.202;2023-06-10T12:24:59;29.20;33.30
16627;DHT22;8427;52.204;7.202;2023-06-10T12:27:30;29.20;32.70
16627;DHT22;8427;52.204;7.202;2023-06-10T12:29:59;29.30;31.60
16627;DHT22;8427;52.204;7.202;2023-06-10T12:32:40;29.40;33.50
16627;DHT22;8427;52.204;7.202;2023-06-10T12:35:10;29.30;30.20
16627;DHT22;8427;52.204;7.202;2023-06-10T12:37:39;29.30;29.60
16627;DHT22;8427;52.204;7.202;2023-06-10T12:40:12;29.40;31.80
16627;DHT22;8427;52.204;7.202;2023-06-10T12:42:40;29.50;33.80
16627;DHT22;8427;52.204;7.202;2023-06-10T12:45:09;29.80;32.80
16627;DHT22;8427;52.204;7.202;2023-06-10T12:47:39;29.80;30.80
16627;DHT22;8427;52.204;7.202;2023-06-10T12:50:09;29.90;32.50
16627;DHT22;8427;52.204;7.202;2023-06-10T12:52:38;30.10;32.00
16627;DHT22;8427;52.204;7.202;2023-06-10T12:55:07;30.00;32.90
16627;DHT22;8427;52.204;7.202;2023-06-10T12:57:37;30.10;32.10
16627;DHT22;8427;52.204;7.202;2023-06-10T13:00:06;30.10;30.60
16627;DHT22;8427;52.204;7.202;2023-06-10T13:02:35;30.10;32.30
16627;DHT22;8427;52.204;7.202;2023-06-10T13:05:04;30.20;35.30
16627;DHT22;8427;52.204;7.202;2023-06-10T13:07:32;30.00;31.90
16627;DHT22;8427;52.204;7.202;2023-06-10T13:10:00;30.10;30.90
16627;DHT22;8427;52.204;7.202;2023-06-10T13:12:28;30.00;30.40
16627;DHT22;8427;52.204;7.202;2023-06-10T13:15:14;30.20;31.60
16627;DHT22;8427;52.204;7.202;2023-06-10T13:17:42;30.10;30.60
16627;DHT22;8427;52.204;7.202;2023-06-10T13:20:11;30.00;31.20
16627;DHT22;8427;52.204;7.202;2023-06-10T13:22:38;30.00;32.40
16627;DHT22;8427;52.204;7.202;2023-06-10T13:25:06;30.10;31.40
16627;DHT22;8427;52.204;7.202;2023-06-10T13:27:35;30.00;32.80
16627;DHT22;8427;52.204;7.202;2023-06-10T13:30:05;30.00;30.80
16627;DHT22;8427;52.204;7.202;2023-06-10T13:32:35;30.10;32.50
16627;DHT22;8427;52.204;7.202;2023-06-10T13:35:04;30.20;34.50
16627;DHT22;8427;52.204;7.202;2023-06-10T13:37:33;30.30;32.50
16627;DHT22;8427;52.204;7.202;2023-06-10T13:40:02;30.40;31.10
16627;DHT22;8427;52.204;7.202;2023-06-10T13:42:30;30.50;33.20
16627;DHT22;8427;52.204;7.202;2023-06-10T13:44:58;30.50;31.60
16627;DHT22;8427;52.204;7.202;2023-06-10T13:47:26;30.40;31.90
16627;DHT22;8427;52.204;7.202;2023-06-10T13:49:56;30.10;29.30
16627;DHT22;8427;52.204;7.202;2023-06-10T13:52:24;30.10;33.30
16627;DHT22;8427;52.204;7.202;2023-06-10T13:54:52;30.00;31.50
16627;DHT22;8427;52.204;7.202;2023-06-10T13:57:20;29.80;32.90
16627;DHT22;8427;52.204;7.202;2023-06-10T13:59:48;29.80;31.00
16627;DHT22;8427;52.204;7.202;2023-06-10T14:02:16;29.90;31.90
16627;DHT22;8427;52.204;7.202;2023-06-10T14:04:44;29.90;31.60
16627;DHT22;8427;52.204;7.202;2023-06-10T14:07:13;29.80;32.30
16627;DHT22;8427;52.204;7.202;2023-06-10T14:09:42;29.80;32.40
16627;DHT22;8427;52.204;7.202;2023-06-10T14:12:10;29.90;33.50
16627;DHT22;8427;52.204;7.202;2023-06-10T14:14:39;30.00;32.60
16627;DHT22;8427;52.204;7.202;2023-06-10T14:17:07;29.80;32.70
16627;DHT22;8427;52.204;7.202;2023-06-10T14:19:35;29.90;34.20
16627;DHT22;8427;52.204;7.202;2023-06-10T14:22:03;29.90;32.80
16627;DHT22;8427;52.204;7.202;2023-06-10T14:24:35;30.00;32.90
16627;DHT22;8427;52.204;7.202;2023-06-10T14:27:04;29.70;33.70
16627;DHT22;8427;52.204;7.202;2023-06-10T14:29:33;29.70;34.90
16627;DHT22;8427;52.204;7.202;2023-06-10T14:32:02;29.70;32.80
16627;DHT22;8427;52.204;7.202;2023-06-10T14:34:33;29.70;32.70
16627;DHT22;8427;52.204;7.202;2023-06-10T14:37:01;29.90;34.20
16627;DHT22;8427;52.204;7.202;2023-06-10T14:39:31;29.90;31.80
16627;DHT22;8427;52.204;7.202;2023-06-10T14:42:00;29.80;34.00
16627;DHT22;8427;52.204;7.202;2023-06-10T14:44:28;29.80;33.40
16627;DHT22;8427;52.204;7.202;2023-06-10T14:46:56;30.00;34.30
16627;DHT22;8427;52.204;7.202;2023-06-10T14:49:24;30.10;33.40
16627;DHT22;8427;52.204;7.202;2023-06-10T14:51:52;30.10;34.90
16627;DHT22;8427;52.204;7.202;2023-06-10T14:54:20;29.80;32.10
16627;DHT22;8427;52.204;7.202;2023-06-10T14:56:48;29.80;32.10
16627;DHT22;8427;52.204;7.202;2023-06-10T14:59:18;29.80;32.60
16627;DHT22;8427;52.204;7.202;2023-06-10T15:01:46;29.90;33.00
16627;DHT22;8427;52.204;7.202;2023-06-10T15:04:15;29.80;33.10
16627;DHT22;8427;52.204;7.202;2023-06-10T15:06:44;29.60;33.40
16627;DHT22;8427;52.204;7.202;2023-06-10T15:09:15;29.80;34.20
16627;DHT22;8427;52.204;7.202;2023-06-10T15:11:43;30.10;32.50
16627;DHT22;8427;52.204;7.202;2023-06-10T15:14:11;30.10;32.50
16627;DHT22;8427;52.204;7.202;2023-06-10T15:16:41;30.40;32.80
16627;DHT22;8427;52.204;7.202;2023-06-10T15:19:09;30.80;31.90
16627;DHT22;8427;52.204;7.202;2023-06-10T15:21:37;31.30;32.60
16627;DHT22;8427;52.204;7.202;2023-06-10T15:24:05;31.60;31.50
16627;DHT22;8427;52.204;7.202;2023-06-10T15:26:34;32.00;29.90
16627;DHT22;8427;52.204;7.202;2023-06-10T15:29:02;32.50;28.90
16627;DHT22;8427;52.204;7.202;2023-06-10T15:31:31;32.80;29.20
16627;DHT22;8427;52.204;7.202;2023-06-10T15:34:01;33.00;28.90
16627;DHT22;8427;52.204;7.202;2023-06-10T15:36:29;32.90;27.50
16627;DHT22;8427;52.204;7.202;2023-06-10T15:39:01;32.80;28.30
16627;DHT22;8427;52.204;7.202;2023-06-10T15:41:30;33.10;27.90
16627;DHT22;8427;52.204;7.202;2023-06-10T15:43:58;33.40;28.30
16627;DHT22;8427;52.204;7.202;2023-06-10T15:46:27;33.90;27.10
16627;DHT22;8427;52.204;7.202;2023-06-10T15:48:56;33.70;26.70
16627;DHT22;8427;52.204;7.202;2023-06-10T15:51:25;33.90;27.10
16627;DHT22;8427;52.204;7.202;2023-06-10T15:53:53;34.10;27.10
16627;DHT22;8427;52.204;7.202;2023-06-10T15:56:21;34.30;27.10
16627;DHT22;8427;52.204;7.202;2023-06-10T15:58:50;34.30;27.70